Time;durP1;ratioP1;P1;durP2;ratioP2;P2;SDS_P1;SDS_P2;PMS_P1;PMS_P2;Temp;Humidity;BMP_temperature;BMP_pressure;BME280_temperature;BME280_humidity;BME280_pressure;Samples;Min_cycle;Max_cycle;Signal;HPM_P1;HPM_P2
2021/01/04 00:01:10;;;;;;;26.13;18.10;;;2.30;99.90;;;;;;5070226;28;20287;-76
2021/01/04 00:03:55;;;;;;;23.20;18.33;;;2.30;99.90;;;;;;5070880;28;20205;-78
2021/01/04 00:06:33;;;;;;;21.60;17.53;;;2.30;99.90;;;;;;5070431;28;20665;-75
2021/01/04 00:09:23;;;;;;;26.87;18.63;;;2.30;99.90;;;;;;5070362;28;20206;-74
2021/01/04 00:11:57;;;;;;;24.07;17.70;;;2.40;99.90;;;;;;5069720;28;20561;-77
2021/01/04 00:14:53;;;;;;;24.43;17.63;;;2.50;99.90;;;;;;5070545;28;20300;-76
2021/01/04 00:17:32;;;;;;;37.10;26.73;;;2.40;99.90;;;;;;5070332;28;20588;-73
2021/01/04 00:20:07;;;;;;;46.87;31.23;;;2.40;99.90;;;;;;5070010;28;20684;-76
2021/01/04 00:22:41;;;;;;;32.93;23.03;;;2.30;99.90;;;;;;5070341;28;20218;-75
2021/01/04 00:25:15;;;;;;;22.03;15.93;;;2.20;99.90;;;;;;5070139;28;20206;-76
2021/01/04 00:27:47;;;;;;;26.20;17.80;;;2.10;99.90;;;;;;5070288;28;20256;-77
2021/01/04 00:30:20;;;;;;;21.50;14.67;;;1.90;99.90;;;;;;5070386;28;20585;-74
2021/01/04 00:32:48;;;;;;;24.90;16.27;;;2.00;99.90;;;;;;5069790;28;20214;-76
2021/01/04 00:35:18;;;;;;;25.70;17.60;;;1.90;99.90;;;;;;5070478;28;20206;-73
2021/01/04 00:38:21;;;;;;;23.30;15.90;;;1.80;99.90;;;;;;5070203;28;20233;-72
2021/01/04 00:41:06;;;;;;;19.07;15.17;;;1.60;99.90;;;;;;5069882;28;20201;-74
2021/01/04 00:43:39;;;;;;;20.70;15.93;;;1.50;99.90;;;;;;5070138;28;21240;-74
2021/01/04 00:46:07;;;;;;;21.50;15.23;;;1.40;99.90;;;;;;5073145;28;20252;-74
2021/01/04 00:48:37;;;;;;;20.07;15.07;;;1.50;99.90;;;;;;5074202;28;20206;-74
2021/01/04 00:51:31;;;;;;;17.60;14.33;;;1.30;99.90;;;;;;5073418;28;20221;-74
2021/01/04 00:53:58;;;;;;;19.67;14.70;;;1.30;99.90;;;;;;5073526;28;20677;-72
2021/01/04 00:56:38;;;;;;;19.40;14.53;;;1.40;99.90;;;;;;5073875;28;20580;-74
2021/01/04 00:59:12;;;;;;;20.77;15.47;;;1.50;99.90;;;;;;5073605;28;20688;-75
2021/01/04 01:01:52;;;;;;;19.57;14.20;;;1.50;99.90;;;;;;5074237;28;20205;-74
2021/01/04 01:04:31;;;;;;;23.03;16.37;;;1.50;99.90;;;;;;5074049;28;20210;-73
2021/01/04 01:07:03;;;;;;;23.30;15.47;;;1.70;99.90;;;;;;5073326;28;20234;-75
2021/01/04 01:09:32;;;;;;;20.63;15.57;;;1.60;99.90;;;;;;5073863;28;20206;-73
2021/01/04 01:12:21;;;;;;;27.40;18.27;;;1.50;99.90;;;;;;5072671;28;20229;-73
2021/01/04 01:15:03;;;;;;;22.67;17.47;;;1.50;99.90;;;;;;5073155;28;20206;-74
2021/01/04 01:18:06;;;;;;;25.30;17.87;;;1.50;99.90;;;;;;5073557;28;20252;-73
2021/01/04 01:20:36;;;;;;;24.37;19.20;;;1.40;99.90;;;;;;5066431;28;20243;-73
2021/01/04 01:23:03;;;;;;;22.07;17.73;;;1.50;99.90;;;;;;5073046;28;20665;-74
2021/01/04 01:25:34;;;;;;;28.60;18.83;;;1.60;99.90;;;;;;5072950;28;20711;-78
2021/01/04 01:28:29;;;;;;;23.70;17.77;;;1.60;99.90;;;;;;5072930;28;20632;-76
2021/01/04 01:31:31;;;;;;;21.07;16.53;;;1.60;99.90;;;;;;5072939;28;20260;-75
2021/01/04 01:34:19;;;;;;;18.03;15.73;;;1.50;99.90;;;;;;5072932;28;20210;-75
2021/01/04 01:37:16;;;;;;;21.27;16.63;;;1.60;99.90;;;;;;5072728;28;20237;-73
2021/01/04 01:40:12;;;;;;;21.70;16.53;;;1.60;99.90;;;;;;5070386;28;20681;-77
2021/01/04 01:43:15;;;;;;;22.70;16.70;;;1.60;99.90;;;;;;5073466;28;20240;-74
2021/01/04 01:45:50;;;;;;;21.57;17.63;;;1.60;99.90;;;;;;5073622;28;20684;-75
2021/01/04 01:48:28;;;;;;;22.17;16.93;;;1.30;99.90;;;;;;5059739;28;20201;-76
2021/01/04 01:51:04;;;;;;;22.43;15.70;;;1.40;99.90;;;;;;5072425;28;20202;-74
2021/01/04 01:53:45;;;;;;;22.53;16.50;;;1.20;99.90;;;;;;5072446;28;20727;-74
2021/01/04 01:56:17;;;;;;;16.47;13.10;;;1.20;99.90;;;;;;5072095;28;20597;-74
2021/01/04 01:59:35;;;;;;;17.13;14.33;;;1.20;99.90;;;;;;5072947;28;20238;-73
2021/01/04 02:02:06;;;;;;;19.43;13.60;;;1.30;99.90;;;;;;5060087;28;20254;-75
2021/01/04 02:04:41;;;;;;;18.40;13.93;;;1.30;99.90;;;;;;5072758;28;20213;-75
2021/01/04 02:07:11;;;;;;;18.40;13.67;;;1.40;99.90;;;;;;5072143;28;20248;-73
2021/01/04 02:09:45;;;;;;;17.43;14.33;;;1.50;99.90;;;;;;5072422;28;20300;-75
2021/01/04 02:12:21;;;;;;;20.00;14.67;;;1.60;99.90;;;;;;5072779;28;20253;-73
2021/01/04 02:14:56;;;;;;;20.70;16.43;;;1.70;99.90;;;;;;5072316;28;20203;-75
2021/01/04 02:17:52;;;;;;;21.87;15.90;;;1.70;99.90;;;;;;5072195;28;20206;-75
2021/01/04 02:20:51;;;;;;;17.90;13.47;;;1.60;99.90;;;;;;5072282;28;20588;-72
2021/01/04 02:23:33;;;;;;;17.50;14.00;;;1.50;99.90;;;;;;5072100;28;20238;-75
2021/01/04 02:26:07;;;;;;;17.03;13.17;;;1.60;99.90;;;;;;5072056;28;20233;-75
2021/01/04 02:28:38;;;;;;;17.70;13.37;;;1.60;99.90;;;;;;5072159;28;20740;-72
2021/01/04 02:31:04;;;;;;;15.63;12.17;;;1.60;99.90;;;;;;5071858;28;20686;-73
2021/01/04 02:33:31;;;;;;;16.70;12.57;;;1.40;99.90;;;;;;5072180;28;20713;-74
2021/01/04 02:36:01;;;;;;;14.70;12.00;;;1.40;99.90;;;;;;5071541;28;20205;-73
2021/01/04 02:38:35;;;;;;;16.30;12.67;;;1.60;99.90;;;;;;5072004;28;20206;-74
2021/01/04 02:41:03;;;;;;;13.27;11.53;;;1.50;99.90;;;;;;5071680;28;20212;-74
2021/01/04 02:43:30;;;;;;;13.67;10.50;;;1.50;99.90;;;;;;5071760;28;20685;-74
2021/01/04 02:46:05;;;;;;;12.97;11.07;;;1.50;99.90;;;;;;5071299;28;20212;-74
2021/01/04 02:48:40;;;;;;;16.20;11.67;;;1.40;99.90;;;;;;5071786;28;20582;-73
2021/01/04 02:51:13;;;;;;;13.63;10.60;;;1.40;99.90;;;;;;5071414;28;20209;-73
2021/01/04 02:54:00;;;;;;;16.03;12.70;;;1.60;99.90;;;;;;5071914;28;20264;-72
2021/01/04 02:56:40;;;;;;;14.33;11.83;;;1.50;99.90;;;;;;5071700;28;20314;-74
2021/01/04 02:59:36;;;;;;;17.23;11.53;;;1.70;99.90;;;;;;5071542;28;20214;-76
2021/01/04 03:02:07;;;;;;;11.53;9.77;;;1.70;99.90;;;;;;5059244;28;20568;-77
2021/01/04 03:04:35;;;;;;;12.80;10.17;;;1.70;99.90;;;;;;5071485;28;20214;-75
2021/01/04 03:07:08;;;;;;;18.77;9.90;;;1.80;99.90;;;;;;5071157;28;20206;-74
2021/01/04 03:09:35;;;;;;;15.10;10.83;;;1.70;99.90;;;;;;5070655;28;20202;-71
2021/01/04 03:12:09;;;;;;;14.47;10.97;;;1.60;99.90;;;;;;5057169;28;20241;-74
2021/01/04 03:14:59;;;;;;;12.43;10.17;;;1.60;99.90;;;;;;5071097;28;20238;-74
2021/01/04 03:17:37;;;;;;;15.07;10.50;;;1.60;99.90;;;;;;5070928;28;20708;-76
2021/01/04 03:20:09;;;;;;;15.37;10.53;;;1.60;99.90;;;;;;5070683;28;20688;-73
2021/01/04 03:22:37;;;;;;;15.43;12.33;;;1.60;99.90;;;;;;5070899;28;20219;-76
2021/01/04 03:25:05;;;;;;;12.83;10.87;;;1.60;99.90;;;;;;5070588;28;20694;-73
2021/01/04 03:27:33;;;;;;;16.47;12.07;;;1.60;99.90;;;;;;5061207;28;20206;-72
2021/01/04 03:29:59;;;;;;;14.17;10.97;;;1.70;99.90;;;;;;5070623;28;20285;-73
2021/01/04 03:32:26;;;;;;;16.57;11.97;;;1.90;99.90;;;;;;5070977;28;20249;-72
2021/01/04 03:34:52;;;;;;;14.60;11.03;;;1.90;99.90;;;;;;5070327;28;20205;-74
2021/01/04 03:37:18;;;;;;;15.90;11.43;;;1.80;99.90;;;;;;5070624;28;20210;-73
2021/01/04 03:39:45;;;;;;;14.97;11.83;;;1.80;99.90;;;;;;5070776;28;20273;-72
2021/01/04 03:42:12;;;;;;;15.13;12.43;;;1.80;99.90;;;;;;5071167;28;20470;-75
2021/01/04 03:44:41;;;;;;;16.33;13.07;;;1.80;99.90;;;;;;5071201;28;20297;-73
2021/01/04 03:47:08;;;;;;;15.37;12.10;;;2.00;99.90;;;;;;5070573;28;20264;-77
2021/01/04 03:49:34;;;;;;;17.87;13.07;;;2.10;99.90;;;;;;5070447;28;20213;-75
2021/01/04 03:52:01;;;;;;;15.13;12.80;;;2.20;99.90;;;;;;5070377;28;20226;-75
2021/01/04 03:54:27;;;;;;;14.33;11.83;;;2.20;99.90;;;;;;5070334;28;20202;-74
2021/01/04 03:56:54;;;;;;;14.63;11.33;;;2.20;99.90;;;;;;5070471;28;20216;-77
2021/01/04 03:59:21;;;;;;;13.30;11.30;;;2.20;99.90;;;;;;5070471;28;20217;-76
2021/01/04 04:01:49;;;;;;;16.53;11.57;;;1.90;99.90;;;;;;5070305;28;20206;-72
2021/01/04 04:04:16;;;;;;;16.93;10.80;;;1.80;99.90;;;;;;5070601;28;20213;-73
2021/01/04 04:06:43;;;;;;;16.87;12.77;;;1.70;99.90;;;;;;5070533;28;20210;-76
2021/01/04 04:09:10;;;;;;;17.27;12.97;;;1.80;99.90;;;;;;5070368;28;20585;-72
2021/01/04 04:11:36;;;;;;;15.97;12.37;;;1.80;99.90;;;;;;5070149;28;20730;-76
2021/01/04 04:14:04;;;;;;;17.83;12.50;;;1.80;99.90;;;;;;5070078;28;20673;-76
2021/01/04 04:16:31;;;;;;;16.33;11.83;;;2.00;99.90;;;;;;5070253;28;20210;-74
2021/01/04 04:18:59;;;;;;;18.37;13.50;;;2.10;99.90;;;;;;5069797;28;20202;-73
2021/01/04 04:21:25;;;;;;;16.90;11.43;;;2.10;99.90;;;;;;5070181;28;20206;-74
2021/01/04 04:23:52;;;;;;;18.17;12.93;;;2.10;99.90;;;;;;5070270;28;20213;-75
2021/01/04 04:26:20;;;;;;;16.70;11.87;;;1.80;99.90;;;;;;5070511;28;20228;-72
2021/01/04 04:28:47;;;;;;;15.30;11.87;;;1.70;99.90;;;;;;5069615;28;20203;-71
2021/01/04 04:31:14;;;;;;;15.93;12.47;;;1.70;99.90;;;;;;5070448;28;20206;-75
2021/01/04 04:33:41;;;;;;;20.00;13.73;;;1.60;99.90;;;;;;5070272;28;20225;-75
2021/01/04 04:36:09;;;;;;;19.87;13.23;;;1.40;99.90;;;;;;5069684;28;20217;-73
2021/01/04 04:38:36;;;;;;;15.67;11.70;;;1.30;99.90;;;;;;5070016;28;20264;-71
2021/01/04 04:41:03;;;;;;;15.70;13.17;;;1.20;99.90;;;;;;5069891;28;20685;-75
2021/01/04 04:43:36;;;;;;;18.53;11.63;;;1.40;99.90;;;;;;5070345;28;20213;-74
2021/01/04 04:46:05;;;;;;;16.13;11.87;;;1.40;99.90;;;;;;5069839;28;20212;-73
2021/01/04 04:48:50;;;;;;;17.87;12.60;;;1.50;99.90;;;;;;5069838;28;20207;-75
2021/01/04 04:51:32;;;;;;;16.90;12.07;;;1.60;99.90;;;;;;5070341;28;20206;-78
2021/01/04 04:54:12;;;;;;;16.60;12.17;;;1.60;99.90;;;;;;5069388;28;20676;-71
2021/01/04 04:57:00;;;;;;;16.67;13.03;;;1.40;99.90;;;;;;5070529;28;20206;-72
2021/01/04 04:59:42;;;;;;;15.73;11.73;;;1.10;99.90;;;;;;5069947;28;20217;-72
2021/01/04 05:02:17;;;;;;;16.20;12.17;;;1.10;99.90;;;;;;5069562;28;20202;-73
2021/01/04 05:05:00;;;;;;;14.90;11.03;;;1.00;99.90;;;;;;5070136;28;20202;-71
2021/01/04 05:07:41;;;;;;;18.20;11.90;;;0.90;99.90;;;;;;5069583;28;20704;-73
2021/01/04 05:10:09;;;;;;;17.47;12.87;;;1.00;99.90;;;;;;5069814;28;20202;-71
2021/01/04 05:12:47;;;;;;;17.97;12.27;;;0.80;99.90;;;;;;5069806;28;20240;-78
2021/01/04 05:15:35;;;;;;;16.17;13.23;;;0.90;99.90;;;;;;5070233;28;20244;-75
2021/01/04 05:18:18;;;;;;;16.90;13.07;;;0.90;99.90;;;;;;5068856;28;20696;-77
2021/01/04 05:21:11;;;;;;;16.80;12.77;;;0.80;99.90;;;;;;5069899;28;20248;-72
2021/01/04 05:24:10;;;;;;;14.00;11.30;;;0.70;99.90;;;;;;5063367;28;20743;-74
2021/01/04 05:27:10;;;;;;;15.17;10.60;;;0.60;99.90;;;;;;5069480;28;20202;-74
2021/01/04 05:30:04;;;;;;;17.20;11.43;;;0.70;99.90;;;;;;5044001;28;20702;-74
2021/01/04 05:33:00;;;;;;;18.43;13.23;;;0.60;99.90;;;;;;5071481;28;20754;-74
2021/01/04 05:35:28;;;;;;;17.87;11.83;;;0.60;99.90;;;;;;5062889;28;20645;-74
2021/01/04 05:38:02;;;;;;;18.07;12.30;;;0.50;99.90;;;;;;5072774;28;20206;-74
2021/01/04 05:40:51;;;;;;;15.57;11.37;;;0.50;99.90;;;;;;5072978;28;20206;-74
2021/01/04 05:43:26;;;;;;;15.03;10.40;;;0.40;99.90;;;;;;5073324;28;20213;-75
2021/01/04 05:45:59;;;;;;;20.33;11.13;;;0.50;99.90;;;;;;5072489;28;20197;-75
2021/01/04 05:48:42;;;;;;;13.87;9.43;;;0.50;99.90;;;;;;5072867;28;20248;-74
2021/01/04 05:51:17;;;;;;;15.80;10.97;;;0.60;99.90;;;;;;5059643;28;20271;-74
2021/01/04 05:53:45;;;;;;;17.43;11.60;;;0.60;99.90;;;;;;5073329;28;20261;-74
2021/01/04 05:56:19;;;;;;;16.83;11.40;;;0.50;99.90;;;;;;5059241;28;20585;-75
2021/01/04 05:58:46;;;;;;;15.83;11.27;;;0.60;99.90;;;;;;5072129;28;20213;-75
2021/01/04 06:01:14;;;;;;;13.67;10.03;;;0.80;99.90;;;;;;5072807;28;20206;-75
2021/01/04 06:03:41;;;;;;;15.93;11.53;;;0.90;99.90;;;;;;5072980;28;20582;-75
2021/01/04 06:06:12;;;;;;;16.23;11.73;;;1.10;99.90;;;;;;5072301;28;20210;-77
2021/01/04 06:08:39;;;;;;;16.93;12.40;;;1.10;99.90;;;;;;5073135;28;20202;-76
2021/01/04 06:11:07;;;;;;;15.57;10.70;;;0.90;99.90;;;;;;5072249;28;20325;-75
2021/01/04 06:13:40;;;;;;;21.00;12.70;;;0.90;99.90;;;;;;5072567;28;20233;-75
2021/01/04 06:16:11;;;;;;;17.23;11.67;;;0.90;99.90;;;;;;5071764;28;20221;-75
2021/01/04 06:18:44;;;;;;;15.97;12.87;;;0.90;99.90;;;;;;5072682;28;20206;-77
2021/01/04 06:21:29;;;;;;;16.60;13.03;;;1.10;99.90;;;;;;5072677;28;20348;-77
2021/01/04 06:24:01;;;;;;;16.60;12.93;;;1.20;99.90;;;;;;5072185;28;20248;-76
2021/01/04 06:26:30;;;;;;;18.33;12.93;;;1.20;99.90;;;;;;5071976;28;20614;-77
2021/01/04 06:29:00;;;;;;;14.60;11.10;;;1.10;99.90;;;;;;5071755;28;20682;-74
2021/01/04 06:31:33;;;;;;;16.80;11.30;;;1.30;99.90;;;;;;5071940;28;20241;-78
2021/01/04 06:34:03;;;;;;;16.03;12.63;;;1.40;99.90;;;;;;5071607;28;20261;-73
2021/01/04 06:36:35;;;;;;;17.20;12.97;;;1.30;99.90;;;;;;5072170;28;20299;-74
2021/01/04 06:39:11;;;;;;;19.23;13.73;;;1.30;99.90;;;;;;5071641;28;20361;-74
2021/01/04 06:41:38;;;;;;;21.97;14.50;;;1.10;99.90;;;;;;5072297;28;20243;-73
2021/01/04 06:44:18;;;;;;;18.30;12.80;;;1.00;99.90;;;;;;5068668;28;20241;-75
2021/01/04 06:47:17;;;;;;;16.13;12.37;;;1.00;99.90;;;;;;5071713;28;20207;-71
2021/01/04 06:49:52;;;;;;;20.70;14.23;;;1.00;99.90;;;;;;5057362;28;20239;-72
2021/01/04 06:53:07;;;;;;;17.97;14.10;;;1.10;99.90;;;;;;5071552;28;20262;-77
2021/01/04 06:56:09;;;;;;;16.70;13.23;;;1.20;99.90;;;;;;5071251;28;20673;-74
2021/01/04 06:59:17;;;;;;;14.57;11.67;;;1.30;99.90;;;;;;5050613;28;20281;-74
2021/01/04 07:02:16;;;;;;;19.73;13.50;;;1.30;99.90;;;;;;5037315;28;20238;-74
2021/01/04 07:05:05;;;;;;;16.73;12.90;;;1.40;99.90;;;;;;5071754;28;20259;-74
2021/01/04 07:07:52;;;;;;;16.47;11.50;;;1.60;99.90;;;;;;5071530;28;20259;-76
2021/01/04 07:10:43;;;;;;;13.67;10.87;;;1.50;99.90;;;;;;5071648;28;20237;-75
2021/01/04 07:13:35;;;;;;;14.53;11.83;;;1.40;99.90;;;;;;5071093;28;20266;-74
2021/01/04 07:16:36;;;;;;;14.87;11.60;;;1.40;99.90;;;;;;5070576;28;20216;-74
2021/01/04 07:19:18;;;;;;;14.50;10.73;;;1.30;99.90;;;;;;5060837;28;20672;-73
2021/01/04 07:21:50;;;;;;;14.30;12.20;;;1.20;99.90;;;;;;5071462;28;20202;-73
2021/01/04 07:24:38;;;;;;;18.90;12.73;;;1.20;99.90;;;;;;5071145;28;20322;-75
2021/01/04 07:27:17;;;;;;;17.20;10.80;;;1.30;99.90;;;;;;5058812;28;20658;-75
2021/01/04 07:30:15;;;;;;;16.47;11.40;;;1.20;99.90;;;;;;5071274;28;20283;-71
2021/01/04 07:32:49;;;;;;;15.37;11.40;;;1.20;99.90;;;;;;5071338;28;20272;-74
2021/01/04 07:35:19;;;;;;;15.73;12.73;;;1.50;99.90;;;;;;5070820;28;20240;-74
2021/01/04 07:38:00;;;;;;;15.27;11.63;;;1.60;99.90;;;;;;5070983;28;20245;-71
2021/01/04 07:40:56;;;;;;;15.37;10.50;;;1.70;99.90;;;;;;5070566;28;20209;-74
2021/01/04 07:44:03;;;;;;;15.83;10.87;;;1.70;99.90;;;;;;5057872;28;20206;-72
2021/01/04 07:47:01;;;;;;;19.60;12.07;;;1.60;99.90;;;;;;5031697;28;20321;-73
2021/01/04 07:50:02;;;;;;;25.77;16.63;;;1.50;99.90;;;;;;5057503;28;20237;-72
2021/01/04 07:53:07;;;;;;;25.97;17.43;;;1.50;99.90;;;;;;5070397;28;20280;-74
2021/01/04 07:56:16;;;;;;;24.90;16.47;;;1.50;99.90;;;;;;5047376;28;20264;-74
2021/01/04 07:59:14;;;;;;;24.53;15.27;;;1.50;99.90;;;;;;5071246;28;20241;-74
2021/01/04 08:02:07;;;;;;;17.33;12.50;;;1.40;99.90;;;;;;5060683;28;20241;-77
2021/01/04 08:04:53;;;;;;;20.90;14.43;;;1.40;99.90;;;;;;5069913;28;20754;-74
2021/01/04 08:07:33;;;;;;;18.43;12.00;;;1.30;99.90;;;;;;5067325;28;20199;-74
2021/01/04 08:10:13;;;;;;;14.13;11.17;;;1.30;99.90;;;;;;5060156;28;20233;-73
2021/01/04 08:13:10;;;;;;;16.90;11.97;;;1.30;99.90;;;;;;5059615;28;20222;-75
2021/01/04 08:15:43;;;;;;;13.17;11.17;;;1.40;99.90;;;;;;5070148;28;20232;-80
2021/01/04 08:18:13;;;;;;;18.13;11.60;;;1.60;99.90;;;;;;5070184;28;20198;-78
2021/01/04 08:20:46;;;;;;;14.67;11.43;;;1.50;99.90;;;;;;5070731;28;20239;-77
2021/01/04 08:23:43;;;;;;;16.67;11.53;;;1.40;99.90;;;;;;5071953;28;20217;-77
2021/01/04 08:26:26;;;;;;;16.00;10.87;;;1.50;99.90;;;;;;5064771;28;20681;-76
2021/01/04 08:29:06;;;;;;;17.00;10.57;;;1.60;99.90;;;;;;5067524;28;20202;-76
2021/01/04 08:31:49;;;;;;;19.27;11.47;;;1.80;99.90;;;;;;5067498;28;20206;-76
2021/01/04 08:34:21;;;;;;;15.83;12.00;;;2.10;99.90;;;;;;5068335;28;20727;-77
2021/01/04 08:36:55;;;;;;;14.47;11.23;;;2.40;99.90;;;;;;5069704;28;20206;-78
2021/01/04 08:39:37;;;;;;;12.97;10.03;;;2.40;99.90;;;;;;5069956;28;20233;-78
2021/01/04 08:42:21;;;;;;;12.43;10.40;;;2.40;99.90;;;;;;5066418;28;20641;-80
2021/01/04 08:44:59;;;;;;;16.23;11.97;;;2.40;99.90;;;;;;5069932;28;20580;-79
2021/01/04 08:47:31;;;;;;;23.40;13.67;;;2.30;99.90;;;;;;5069881;28;20399;-76
2021/01/04 08:50:10;;;;;;;22.40;13.83;;;2.10;99.90;;;;;;5069658;28;20206;-77
2021/01/04 08:52:43;;;;;;;25.50;14.20;;;2.10;99.90;;;;;;5069898;28;20225;-77
2021/01/04 08:55:11;;;;;;;17.23;12.07;;;2.10;99.90;;;;;;5068045;28;20242;-76
2021/01/04 08:57:41;;;;;;;17.63;11.93;;;2.10;99.90;;;;;;5069043;28;20202;-76
2021/01/04 09:00:19;;;;;;;18.43;12.20;;;2.30;99.90;;;;;;5068831;28;20206;-77
2021/01/04 09:02:46;;;;;;;12.47;9.83;;;2.50;99.90;;;;;;5063729;28;20708;-73
2021/01/04 09:05:14;;;;;;;17.93;12.13;;;3.60;99.90;;;;;;5062302;28;20206;-77
2021/01/04 09:07:48;;;;;;;16.70;13.17;;;3.30;99.90;;;;;;5059357;28;20202;-76
2021/01/04 09:10:22;;;;;;;18.97;10.90;;;3.00;99.90;;;;;;5073218;28;20238;-77
2021/01/04 09:12:52;;;;;;;14.03;10.40;;;3.50;99.90;;;;;;5068189;28;20700;-74
2021/01/04 09:15:32;;;;;;;15.53;9.97;;;4.40;99.90;;;;;;5066948;28;20299;-79
2021/01/04 09:18:13;;;;;;;12.00;9.00;;;4.70;99.90;;;;;;5072522;28;20586;-78
2021/01/04 09:20:48;;;;;;;12.50;9.73;;;5.90;99.90;;;;;;5074241;28;20209;-77
2021/01/04 09:23:36;;;;;;;15.80;11.00;;;6.00;99.90;;;;;;5066979;28;20224;-76
2021/01/04 09:26:09;;;;;;;14.93;10.70;;;6.00;99.90;;;;;;5071440;28;20206;-76
2021/01/04 09:28:40;;;;;;;14.00;10.97;;;7.40;99.90;;;;;;5066105;28;20198;-77
2021/01/04 09:31:09;;;;;;;13.77;9.70;;;7.60;99.90;;;;;;5073155;28;20245;-78
2021/01/04 09:33:44;;;;;;;10.80;8.40;;;8.10;99.90;;;;;;5068618;28;20268;-78
2021/01/04 09:36:11;;;;;;;10.93;9.67;;;7.20;99.90;;;;;;5073478;28;20201;-79
2021/01/04 09:38:38;;;;;;;9.90;8.10;;;9.00;99.90;;;;;;5073232;28;20206;-79
2021/01/04 09:41:07;;;;;;;10.10;8.27;;;8.90;99.90;;;;;;5073146;28;20203;-79
2021/01/04 09:43:36;;;;;;;10.23;9.10;;;8.60;99.90;;;;;;5073369;28;20210;-78
2021/01/04 09:46:22;;;;;;;11.43;8.93;;;10.40;99.90;;;;;;5072984;28;20242;-76
2021/01/04 09:48:57;;;;;;;13.80;12.17;;;10.20;99.90;;;;;;5072851;28;20312;-77
2021/01/04 09:51:32;;;;;;;11.23;8.67;;;9.60;99.90;;;;;;5073304;28;20235;-79
2021/01/04 09:54:02;;;;;;;13.60;8.87;;;8.10;99.90;;;;;;5072379;28;20225;-79
2021/01/04 09:56:32;;;;;;;11.33;8.53;;;11.70;99.90;;;;;;5073033;28;20203;-75
2021/01/04 09:59:05;;;;;;;11.73;8.60;;;10.00;99.90;;;;;;5072256;28;20205;-79
2021/01/04 10:01:42;;;;;;;10.50;9.10;;;7.00;99.90;;;;;;5073318;28;20245;-78
2021/01/04 10:04:08;;;;;;;13.37;9.93;;;5.70;99.90;;;;;;5072505;28;20237;-79
2021/01/04 10:06:38;;;;;;;12.83;10.23;;;5.00;99.90;;;;;;5072908;28;20240;-79
2021/01/04 10:09:12;;;;;;;13.20;10.07;;;5.70;99.90;;;;;;5071435;28;20206;-73
2021/01/04 10:11:38;;;;;;;13.30;9.03;;;5.50;99.90;;;;;;5073105;28;20252;-79
2021/01/04 10:14:11;;;;;;;14.20;10.33;;;7.50;99.90;;;;;;5072242;28;20287;-77
2021/01/04 10:16:43;;;;;;;12.93;9.87;;;5.90;99.90;;;;;;5072681;28;20218;-80
2021/01/04 10:19:15;;;;;;;10.77;8.40;;;10.00;99.90;;;;;;5071961;28;20669;-77
2021/01/04 10:21:51;;;;;;;11.80;8.70;;;7.30;99.90;;;;;;5072474;28;20214;-78
2021/01/04 10:24:22;;;;;;;11.30;9.37;;;8.10;99.90;;;;;;5072703;28;20292;-76
2021/01/04 10:26:50;;;;;;;9.90;8.17;;;5.90;99.90;;;;;;5064161;28;20673;-78
2021/01/04 10:29:19;;;;;;;13.23;9.40;;;6.20;99.90;;;;;;5068848;28;20256;-76
2021/01/04 10:31:48;;;;;;;15.03;10.30;;;6.20;99.90;;;;;;5071479;28;20738;-73
2021/01/04 10:34:17;;;;;;;16.17;11.47;;;7.40;99.90;;;;;;5071821;28;20704;-77
2021/01/04 10:36:51;;;;;;;10.93;9.83;;;6.70;99.90;;;;;;5071704;28;20568;-74
2021/01/04 10:39:20;;;;;;;11.13;9.40;;;6.00;99.90;;;;;;5060150;28;20197;-77
2021/01/04 10:41:47;;;;;;;17.33;10.30;;;6.40;99.90;;;;;;5071780;28;20242;-78
2021/01/04 10:44:22;;;;;;;14.73;11.33;;;7.90;99.90;;;;;;5071861;28;20681;-76
2021/01/04 10:46:57;;;;;;;11.60;9.57;;;6.90;99.90;;;;;;5071225;28;20217;-77
2021/01/04 10:49:26;;;;;;;9.20;8.30;;;6.30;99.90;;;;;;5060645;28;20287;-76
2021/01/04 10:51:55;;;;;;;8.43;7.57;;;5.60;99.90;;;;;;5071433;28;20245;-77
2021/01/04 10:54:33;;;;;;;10.43;7.43;;;5.30;99.90;;;;;;5071163;28;20238;-78
2021/01/04 10:57:07;;;;;;;12.90;10.33;;;5.70;99.90;;;;;;5067485;28;20233;-77
2021/01/04 10:59:37;;;;;;;10.40;8.07;;;6.20;99.90;;;;;;5071627;28;20264;-78
2021/01/04 11:02:05;;;;;;;11.17;8.93;;;5.50;99.90;;;;;;5071034;28;20195;-79
2021/01/04 11:04:32;;;;;;;11.77;8.90;;;5.00;99.90;;;;;;5071277;28;20233;-79
2021/01/04 11:07:19;;;;;;;11.43;8.43;;;5.10;99.90;;;;;;5070992;28;20631;-78
2021/01/04 11:09:47;;;;;;;10.53;8.97;;;5.50;99.90;;;;;;5071286;28;20201;-75
2021/01/04 11:12:17;;;;;;;10.73;9.20;;;5.70;99.90;;;;;;5072465;28;20217;-85
2021/01/04 11:14:56;;;;;;;9.90;7.20;;;5.90;99.90;;;;;;5072333;28;20215;-80
2021/01/04 11:17:27;;;;;;;9.30;7.83;;;5.90;99.90;;;;;;5070169;28;20217;-79
2021/01/04 11:19:53;;;;;;;9.60;7.67;;;5.80;99.90;;;;;;5070202;28;20200;-80
2021/01/04 11:22:24;;;;;;;9.77;7.17;;;6.40;99.90;;;;;;5067501;28;20225;-76
2021/01/04 11:24:51;;;;;;;11.03;8.07;;;6.70;99.90;;;;;;5068851;28;20202;-81
2021/01/04 11:27:19;;;;;;;9.03;7.17;;;6.70;99.90;;;;;;5069396;28;20630;-77
2021/01/04 11:29:45;;;;;;;9.17;8.23;;;6.70;99.90;;;;;;5069700;28;20720;-73
2021/01/04 11:32:13;;;;;;;10.40;7.00;;;6.10;99.90;;;;;;5070225;28;20203;-79
2021/01/04 11:34:46;;;;;;;10.70;8.63;;;5.80;99.90;;;;;;5070110;28;20206;-81
2021/01/04 11:37:13;;;;;;;9.47;6.93;;;5.70;99.90;;;;;;5060458;28;20201;-80
2021/01/04 11:39:40;;;;;;;6.30;5.43;;;5.80;99.90;;;;;;5070246;28;20578;-82
2021/01/04 11:42:07;;;;;;;10.10;6.57;;;5.90;99.90;;;;;;5070831;28;20246;-83
2021/01/04 11:44:34;;;;;;;10.30;7.13;;;5.70;99.90;;;;;;5071502;28;20801;-81
2021/01/04 11:47:01;;;;;;;10.33;7.00;;;5.80;99.90;;;;;;5070877;28;20245;-82
2021/01/04 11:49:28;;;;;;;9.20;6.00;;;5.70;99.90;;;;;;5071086;28;20615;-80
2021/01/04 11:51:56;;;;;;;9.77;6.90;;;5.50;99.90;;;;;;5071091;28;20700;-81
2021/01/04 11:54:23;;;;;;;10.70;8.30;;;5.70;99.90;;;;;;5071151;28;20295;-83
2021/01/04 11:56:50;;;;;;;12.73;7.50;;;5.60;99.90;;;;;;5071241;28;20209;-85
2021/01/04 11:59:17;;;;;;;9.03;6.17;;;5.70;99.90;;;;;;5070845;28;20202;-81
2021/01/04 12:01:44;;;;;;;9.93;8.10;;;5.60;99.90;;;;;;5071744;28;20206;-82
2021/01/04 12:04:11;;;;;;;10.90;8.43;;;5.70;99.90;;;;;;5070481;28;20221;-84
2021/01/04 12:06:37;;;;;;;10.97;8.63;;;5.90;99.90;;;;;;5071347;28;20210;-81
2021/01/04 12:09:06;;;;;;;10.07;7.63;;;5.90;99.90;;;;;;5070705;28;20214;-73
2021/01/04 12:11:33;;;;;;;10.20;7.87;;;6.10;99.90;;;;;;5071354;28;20245;-75
2021/01/04 12:14:00;;;;;;;8.60;6.83;;;6.10;99.90;;;;;;5070807;28;20265;-81
2021/01/04 12:16:28;;;;;;;9.43;7.77;;;6.00;99.90;;;;;;5071248;28;20306;-74
2021/01/04 12:18:55;;;;;;;13.60;7.80;;;5.90;99.90;;;;;;5071107;28;20210;-82
2021/01/04 12:21:22;;;;;;;9.13;6.93;;;6.00;99.90;;;;;;5070681;28;20230;-81
2021/01/04 12:23:49;;;;;;;10.30;7.90;;;6.00;99.90;;;;;;5070489;28;20616;-81
2021/01/04 12:26:16;;;;;;;9.93;6.27;;;6.20;99.90;;;;;;5070389;28;20209;-81
2021/01/04 12:28:43;;;;;;;12.00;8.17;;;6.10;99.90;;;;;;5071004;28;20214;-79
2021/01/04 12:31:09;;;;;;;10.33;7.93;;;5.90;99.90;;;;;;5070636;28;20206;-80
2021/01/04 12:33:36;;;;;;;14.77;9.43;;;6.00;99.90;;;;;;5070438;28;20230;-79
2021/01/04 12:36:03;;;;;;;15.43;9.13;;;6.00;99.90;;;;;;5070116;28;20249;-85
2021/01/04 12:38:29;;;;;;;10.00;7.90;;;6.10;99.90;;;;;;5070052;28;20245;-80
2021/01/04 12:40:56;;;;;;;10.57;8.17;;;6.10;99.90;;;;;;5071119;28;20662;-80
2021/01/04 12:43:23;;;;;;;12.90;9.20;;;6.20;99.90;;;;;;5074421;28;20206;-79
2021/01/04 12:45:49;;;;;;;12.10;8.03;;;6.20;99.90;;;;;;5073308;28;20241;-80
2021/01/04 12:48:16;;;;;;;9.00;6.63;;;6.20;99.90;;;;;;5074721;28;20210;-81
2021/01/04 12:50:42;;;;;;;8.03;6.20;;;6.10;99.90;;;;;;5073724;28;20256;-82
2021/01/04 12:53:09;;;;;;;10.20;6.37;;;6.20;99.90;;;;;;5073717;28;20232;-80
2021/01/04 12:55:35;;;;;;;8.83;6.40;;;5.70;99.90;;;;;;5061067;28;20233;-81
2021/01/04 12:58:05;;;;;;;7.37;5.67;;;5.80;99.90;;;;;;5068216;28;20261;-72
2021/01/04 13:00:35;;;;;;;6.57;5.20;;;6.00;99.90;;;;;;5073072;28;20284;-82
2021/01/04 13:03:02;;;;;;;6.00;4.70;;;6.00;99.90;;;;;;5074465;28;20218;-86
2021/01/04 13:05:28;;;;;;;6.20;4.67;;;6.20;99.90;;;;;;5075320;28;20259;-87
2021/01/04 13:07:57;;;;;;;4.67;3.43;;;6.10;99.90;;;;;;5074179;28;20213;-82
2021/01/04 13:10:23;;;;;;;6.03;4.70;;;6.20;99.90;;;;;;5071870;28;20206;-81
2021/01/04 13:12:49;;;;;;;5.03;4.33;;;6.20;99.90;;;;;;5061932;28;20737;-85
2021/01/04 13:15:17;;;;;;;6.90;4.67;;;6.30;99.90;;;;;;5074258;28;20203;-88
2021/01/04 13:17:45;;;;;;;5.53;3.80;;;6.30;99.90;;;;;;5073970;28;20263;-76
2021/01/04 13:20:13;;;;;;;6.80;5.60;;;6.30;99.90;;;;;;5063875;28;20244;-85
2021/01/04 13:22:41;;;;;;;7.27;4.60;;;6.40;99.90;;;;;;5074938;28;20213;-85